Time;durP1;ratioP1;P1;durP2;ratioP2;P2;SDS_P1;SDS_P2;PMS_P1;PMS_P2;Temp;Humidity;BMP_temperature;BMP_pressure;BME280_temperature;BME280_humidity;BME280_pressure;Samples;Min_cycle;Max_cycle;Signal;HPM_P1;HPM_P2
2023/03/26 00:00:53;;;;;;;40.45;4.40;;;;;;;6.36;100.00;100582.44;4999536;28;20037;-94
2023/03/26 00:03:41;;;;;;;35.78;4.72;;;;;;;6.27;100.00;100573.66;4999174;28;20474;-93
2023/03/26 00:06:37;;;;;;;36.42;3.80;;;;;;;6.27;100.00;100578.22;4986229;28;20033;-93
2023/03/26 00:09:38;;;;;;;;;;;;;;;;;;;;;
2023/03/26 00:12:37;;;;;;;38.65;3.97;;;;;;;6.15;100.00;100570.66;4992198;28;20050;-93
2023/03/26 00:15:14;;;;;;;41.38;4.03;;;;;;;6.13;100.00;100563.81;4998661;28;20042;-93
2023/03/26 00:18:02;;;;;;;36.72;3.70;;;;;;;6.09;100.00;100574.13;4982616;28;20038;-93
2023/03/26 00:20:37;;;;;;;36.10;3.90;;;;;;;6.05;100.00;100564.75;4999206;28;20485;-93
2023/03/26 00:23:28;;;;;;;;;;;;;;;;;;;;;
2023/03/26 00:26:11;;;;;;;34.30;3.75;;;;;;;5.96;100.00;100558.66;5016229;28;20026;-92
2023/03/26 00:28:41;;;;;;;44.58;4.18;;;;;;;5.92;100.00;100562.75;4999318;28;20029;-93
2023/03/26 00:31:10;;;;;;;41.28;4.07;;;;;;;5.90;100.00;100553.19;5014607;28;20026;-93
2023/03/26 00:33:43;;;;;;;45.45;4.55;;;;;;;5.91;100.00;100558.38;4998158;28;20054;-94
2023/03/26 00:36:18;;;;;;;46.55;4.03;;;;;;;5.83;100.00;100547.75;4998319;28;20033;-93
2023/03/26 00:39:13;;;;;;;36.70;3.35;;;;;;;5.85;100.00;100555.63;4990957;28;20076;-93
2023/03/26 00:41:53;;;;;;;43.83;3.58;;;;;;;5.79;100.00;100549.16;5014311;28;20030;-93
2023/03/26 00:44:37;;;;;;;;;;;;;;;;;;;;;
2023/03/26 00:47:02;;;;;;;35.20;4.22;;;;;;;5.79;100.00;100541.91;5000573;28;20038;-93
2023/03/26 00:49:30;;;;;;;36.20;5.88;;;;;;;5.80;100.00;100540.88;4998472;28;20125;-93
2023/03/26 00:51:56;;;;;;;42.40;3.92;;;;;;;5.86;100.00;100551.91;4998182;28;20037;-93
2023/03/26 00:54:32;;;;;;;38.77;4.60;;;;;;;5.83;100.00;100536.97;4998732;28;20034;-93
2023/03/26 00:57:05;;;;;;;36.28;3.70;;;;;;;5.86;100.00;100538.44;4983646;28;20044;-93
2023/03/26 00:59:38;;;;;;;35.30;3.92;;;;;;;5.88;100.00;100537.22;4982497;28;20059;-92
2023/03/26 01:02:15;;;;;;;35.78;4.97;;;;;;;5.80;100.00;100524.72;4997993;28;20136;-92
2023/03/26 01:05:21;;;;;;;40.43;4.43;;;;;;;5.82;100.00;100535.31;4998112;28;20524;-92
2023/03/26 01:11:02;;;;;;;32.10;3.40;;;;;;;5.76;100.00;100509.97;4917180;29;20504;-92
2023/03/26 01:13:33;;;;;;;40.42;3.30;;;;;;;5.71;100.00;100498.13;4997757;28;20496;-93
2023/03/26 01:16:02;;;;;;;37.80;4.05;;;;;;;5.69;100.00;100503.69;5015264;28;20034;-93
2023/03/26 01:18:39;;;;;;;42.50;3.73;;;;;;;5.65;100.00;100502.41;4999534;28;20065;-93
2023/03/26 01:21:28;;;;;;;39.42;3.55;;;;;;;5.61;100.00;100495.75;4999488;28;20455;-92
2023/03/26 01:24:15;;;;;;;44.90;4.25;;;;;;;5.59;100.00;100489.72;4999600;28;20040;-93
2023/03/26 01:27:01;;;;;;;36.38;3.63;;;;;;;5.62;100.00;100489.31;4987513;28;20132;-93
2023/03/26 01:30:05;;;;;;;41.63;4.60;;;;;;;5.59;100.00;100485.16;4997952;28;20030;-92
2023/03/26 01:33:13;;;;;;;37.37;3.63;;;;;;;5.57;100.00;100481.84;4996860;28;20069;-92
2023/03/26 01:35:53;;;;;;;29.98;2.75;;;;;;;5.57;100.00;100476.44;4997760;28;20184;-94
2023/03/26 01:38:34;;;;;;;42.42;4.10;;;;;;;5.50;100.00;100467.47;4996920;28;20042;-93
2023/03/26 01:41:24;;;;;;;33.80;3.53;;;;;;;5.51;100.00;100468.31;4997655;28;20033;-92
2023/03/26 01:44:14;;;;;;;32.47;3.55;;;;;;;5.49;100.00;100468.50;4997924;28;20128;-93
2023/03/26 01:46:51;;;;;;;34.00;4.40;;;;;;;5.52;100.00;100472.66;4997134;28;20084;-93
2023/03/26 01:49:20;;;;;;;36.55;4.00;;;;;;;5.44;100.00;100458.31;4997116;28;20057;-94
2023/03/26 01:51:56;;;;;;;39.53;4.45;;;;;;;5.44;100.00;100460.16;4997414;28;20029;-93
2023/03/26 01:54:30;;;;;;;28.23;3.42;;;;;;;5.43;100.00;100459.34;5014442;28;20104;-93
2023/03/26 01:57:26;;;;;;;37.85;3.83;;;;;;;5.42;100.00;100460.38;4997273;28;20110;-92
2023/03/26 02:00:27;;;;;;;;;;;;;;;;;;;;;
2023/03/26 02:03:23;;;;;;;42.03;3.85;;;;;;;5.46;100.00;100458.09;5014672;28;20029;-93
2023/03/26 02:05:56;;;;;;;38.20;3.42;;;;;;;5.41;100.00;100431.78;4996938;28;20018;-92
2023/03/26 02:08:34;;;;;;;38.67;3.35;;;;;;;5.42;100.00;100446.09;4996803;28;20041;-92
2023/03/26 02:11:18;;;;;;;31.10;2.92;;;;;;;5.41;100.00;100430.97;5014537;28;20098;-92
2023/03/26 02:13:45;;;;;;;46.23;3.37;;;;;;;5.45;100.00;100430.38;4989572;28;20021;-93
2023/03/26 02:16:15;;;;;;;27.73;3.15;;;;;;;5.48;100.00;100428.31;4996333;28;20029;-92
2023/03/26 02:19:01;;;;;;;39.42;3.78;;;;;;;5.48;100.00;100426.47;4996760;28;20026;-92
2023/03/26 02:21:39;;;;;;;27.33;3.15;;;;;;;5.41;100.00;100404.06;4982122;28;20034;-93
2023/03/26 02:24:10;;;;;;;30.13;3.20;;;;;;;5.42;100.00;100406.53;4997427;28;20112;-93
2023/03/26 02:26:38;;;;;;;37.67;3.43;;;;;;;5.43;100.00;100400.16;5014356;28;20036;-92
2023/03/26 02:29:18;;;;;;;27.50;2.80;;;;;;;5.44;100.00;100403.66;4996729;28;20026;-92
2023/03/26 02:31:49;;;;;;;24.95;2.80;;;;;;;5.44;100.00;100400.97;5014169;28;20381;-93
2023/03/26 02:34:23;;;;;;;31.60;3.50;;;;;;;5.46;100.00;100404.28;4996381;28;20070;-93
2023/03/26 02:37:00;;;;;;;31.08;2.85;;;;;;;5.48;100.00;100398.72;4996920;28;20045;-94
2023/03/26 02:39:28;;;;;;;33.97;3.97;;;;;;;5.48;100.00;100396.03;4963041;28;20137;-93
2023/03/26 02:49:28;;;;;;;;;;;;;;;;;;;;;
2023/03/26 02:55:26;;;;;;;28.37;3.73;;;;;;;5.60;100.00;100376.47;4915990;29;20099;-93
2023/03/26 02:57:56;;;;;;;29.17;2.80;;;;;;;5.53;100.00;100364.81;4987690;28;20058;-93
2023/03/26 03:00:24;;;;;;;33.33;3.35;;;;;;;5.55;100.00;100360.09;4996451;28;20041;-92
2023/03/26 03:03:10;;;;;;;37.53;2.90;;;;;;;5.63;100.00;100361.81;4993703;28;20116;-93
2023/03/26 03:05:43;;;;;;;41.63;3.38;;;;;;;5.65;100.00;100345.47;5014606;28;20048;-93
2023/03/26 03:08:13;;;;;;;26.70;3.10;;;;;;;5.66;100.00;100339.06;4996395;28;20040;-93
2023/03/26 03:10:42;;;;;;;30.65;3.30;;;;;;;5.65;100.00;100332.81;4981573;28;20088;-93
2023/03/26 03:13:17;;;;;;;23.73;3.08;;;;;;;5.68;100.00;100332.44;4980174;28;20096;-93
2023/03/26 03:16:17;;;;;;;;;;;;;;;;;;;;;
2023/03/26 03:18:53;;;;;;;;;;;;;;;;;;;;;
2023/03/26 03:21:23;;;;;;;20.80;2.60;;;;;;;5.79;100.00;100321.13;5013924;28;20034;-93
2023/03/26 03:23:49;;;;;;;19.55;2.45;;;;;;;5.83;100.00;100312.66;5013666;28;20149;-94
2023/03/26 03:26:20;;;;;;;37.40;3.22;;;;;;;5.92;100.00;100320.41;4997809;28;20130;-92
2023/03/26 03:28:52;;;;;;;25.90;2.63;;;;;;;5.87;100.00;100316.63;4983833;28;20100;-93
2023/03/26 03:31:25;;;;;;;23.98;2.75;;;;;;;5.88;100.00;100319.13;5000302;28;20034;-94
2023/03/26 03:38:00;;;;;;;29.48;2.83;;;;;;;5.85;100.00;100327.59;5004133;28;20493;-93
2023/03/26 03:40:28;;;;;;;21.15;3.58;;;;;;;5.78;100.00;100306.00;4980490;28;20034;-92
2023/03/26 03:42:54;;;;;;;23.40;2.63;;;;;;;5.82;100.00;100308.28;4964623;28;20387;-92
2023/03/26 03:45:25;;;;;;;31.90;3.92;;;;;;;5.82;100.00;100309.16;4979774;28;20027;-92
2023/03/26 03:47:50;;;;;;;24.23;2.67;;;;;;;5.77;100.00;100298.97;4963608;28;20034;-92
2023/03/26 04:11:29;;;;;;;20.27;2.47;;;;;;;5.87;100.00;100274.38;4996165;28;20072;-92
2023/03/26 04:13:55;;;;;;;20.40;2.25;;;;;;;5.90;100.00;100259.69;4982287;28;20026;-92
2023/03/26 04:16:28;;;;;;;26.83;2.90;;;;;;;5.88;100.00;100241.03;4979994;28;20126;-92
2023/03/26 04:26:23;;;;;;;22.13;2.60;;;;;;;6.11;100.00;100232.69;4938493;28;20043;-92
2023/03/26 04:32:57;;;;;;;21.73;3.00;;;;;;;6.18;100.00;100227.31;4936380;29;20411;-91
2023/03/26 04:50:23;;;;;;;32.17;2.63;;;;;;;6.18;100.00;100188.78;4974237;28;20494;-91
2023/03/26 04:56:48;;;;;;;24.85;2.10;;;;;;;6.15;100.00;100165.78;5015143;28;20056;-92
2023/03/26 05:02:56;;;;;;;19.50;2.40;;;;;;;6.16;100.00;100175.53;5014957;28;20108;-91
2023/03/26 05:08:52;;;;;;;17.90;2.72;;;;;;;6.21;100.00;100150.66;5015167;28;20053;-92
2023/03/26 05:15:02;;;;;;;24.05;2.45;;;;;;;6.30;100.00;100155.66;5015362;28;20084;-92
2023/03/26 05:27:58;;;;;;;20.13;3.03;;;;;;;6.36;100.00;100137.81;5014238;28;20072;-92
2023/03/26 05:30:39;;;;;;;19.98;2.70;;;;;;;6.35;100.00;100128.09;4955614;28;20037;-92
2023/03/26 05:33:07;;;;;;;22.47;3.00;;;;;;;6.39;100.00;100131.22;4996994;28;20026;-93
2023/03/26 05:35:34;;;;;;;22.48;2.97;;;;;;;6.38;100.00;100118.75;4997902;28;20038;-93
2023/03/26 05:45:32;;;;;;;30.98;2.80;;;;;;;6.48;100.00;100108.41;5014758;28;20123;-92
2023/03/26 06:39:36;;;;;;;24.57;2.90;;;;;;;6.71;100.00;100061.34;5013951;28;20041;-91
2023/03/26 06:50:26;;;;;;;15.02;2.13;;;;;;;6.75;100.00;100070.69;5013556;28;20545;-92
2023/03/26 06:53:02;;;;;;;18.80;2.55;;;;;;;6.66;100.00;100061.97;4993726;28;20049;-92
2023/03/26 06:55:27;;;;;;;14.43;2.67;;;;;;;6.70;100.00;100065.91;4996289;28;20041;-94
2023/03/26 06:57:57;;;;;;;18.88;3.03;;;;;;;6.67;100.00;100058.22;4980500;28;20042;-94
2023/03/26 07:00:25;;;;;;;16.73;3.35;;;;;;;6.71;100.00;100061.34;4981325;28;20053;-95
2023/03/26 07:02:53;;;;;;;20.10;3.15;;;;;;;6.72;100.00;100057.59;5017742;28;20030;-95
2023/03/26 07:05:21;;;;;;;23.38;3.58;;;;;;;6.70;100.00;100063.19;5000604;28;20124;-96
2023/03/26 07:07:49;;;;;;;17.73;2.90;;;;;;;6.67;100.00;100045.59;5018605;28;20069;-94
2023/03/26 07:10:15;;;;;;;17.67;2.70;;;;;;;6.70;100.00;100057.81;4999652;28;20183;-93
2023/03/26 07:12:43;;;;;;;21.87;3.70;;;;;;;6.70;100.00;100057.81;5000546;28;20064;-91
2023/03/26 07:15:11;;;;;;;17.65;3.40;;;;;;;6.75;100.00;100059.91;4999789;28;20129;-92
2023/03/26 07:17:49;;;;;;;13.40;2.72;;;;;;;6.72;100.00;100054.91;4983479;28;20037;-93
2023/03/26 07:20:14;;;;;;;15.43;3.05;;;;;;;6.75;100.00;100049.13;5017049;28;20030;-93
2023/03/26 07:22:43;;;;;;;18.23;3.17;;;;;;;6.80;100.00;100057.38;5017094;28;20033;-90
2023/03/26 07:25:12;;;;;;;15.27;3.20;;;;;;;6.77;100.00;100049.72;5016615;28;20063;-91
2023/03/26 07:27:58;;;;;;;16.55;3.20;;;;;;;6.85;100.00;100054.91;5015477;28;20057;-90
2023/03/26 07:30:45;;;;;;;15.68;3.47;;;;;;;6.77;100.00;100039.75;4999073;28;20041;-91
2023/03/26 07:33:26;;;;;;;19.53;3.20;;;;;;;6.78;100.00;100032.53;4999337;28;20543;-93
2023/03/26 07:36:16;;;;;;;19.38;3.33;;;;;;;6.81;100.00;100032.09;5017107;28;20123;-93
2023/03/26 07:39:14;;;;;;;14.90;2.80;;;;;;;6.91;100.00;100039.72;4999018;28;20022;-92
2023/03/26 07:41:54;;;;;;;17.25;3.47;;;;;;;6.92;100.00;100034.13;4998672;28;20029;-91
2023/03/26 07:44:56;;;;;;;13.35;3.10;;;;;;;6.96;100.00;100040.75;4982238;28;20058;-92
2023/03/26 07:47:34;;;;;;;14.77;3.30;;;;;;;6.95;100.00;100032.88;4978269;28;20030;-88
2023/03/26 07:50:03;;;;;;;20.77;3.42;;;;;;;6.95;100.00;100016.69;4998765;28;20033;-91
2023/03/26 07:52:31;;;;;;;16.90;3.50;;;;;;;7.01;100.00;100029.31;5015250;28;20053;-92
2023/03/26 07:55:03;;;;;;;20.42;3.45;;;;;;;7.03;100.00;100033.47;4992613;28;20026;-92
2023/03/26 07:57:43;;;;;;;22.75;3.00;;;;;;;7.04;100.00;100028.91;5007480;28;20033;-91
2023/03/26 08:00:23;;;;;;;15.87;3.40;;;;;;;7.04;100.00;100015.41;4997349;28;20120;-91
2023/03/26 08:03:11;;;;;;;17.25;3.40;;;;;;;7.10;100.00;100022.69;4997618;28;20100;-93
2023/03/26 08:06:07;;;;;;;16.05;3.45;;;;;;;7.18;100.00;100019.72;4962332;28;20129;-92
2023/03/26 08:09:03;;;;;;;17.70;3.33;;;;;;;7.18;100.00;100017.03;4998097;28;20083;-92
2023/03/26 08:11:46;;;;;;;14.25;4.07;;;;;;;7.19;100.00;100010.59;5015565;28;20042;-92
2023/03/26 08:14:39;;;;;;;16.00;2.97;;;;;;;7.32;100.00;100023.22;5014338;28;20029;-92
2023/03/26 08:17:37;;;;;;;16.63;3.45;;;;;;;7.32;100.00;100007.03;4981871;28;20061;-91
2023/03/26 08:20:11;;;;;;;16.35;3.22;;;;;;;7.38;100.00;100000.78;4994911;28;20026;-92
2023/03/26 08:22:40;;;;;;;20.73;3.33;;;;;;;7.44;100.00;100007.19;4994866;28;20049;-92
2023/03/26 08:25:31;;;;;;;15.18;3.35;;;;;;;7.55;100.00;100017.28;4975663;28;20150;-92
2023/03/26 08:28:36;;;;;;;17.83;4.07;;;;;;;7.56;100.00;100004.63;4990353;28;20023;-90
2023/03/26 08:31:16;;;;;;;16.38;2.85;;;;;;;7.65;100.00;100002.50;4978721;28;20033;-90
2023/03/26 08:33:44;;;;;;;18.63;3.45;;;;;;;7.69;100.00;99999.16;4978658;28;20027;-91
2023/03/26 08:36:12;;;;;;;12.82;3.88;;;;;;;7.75;100.00;100000.16;4994540;28;20026;-91
2023/03/26 08:38:40;;;;;;;12.50;3.42;;;;;;;7.76;100.00;100012.59;4995034;28;20093;-91
2023/03/26 08:41:13;;;;;;;17.63;3.50;;;;;;;7.88;100.00;100004.63;4974529;28;20030;-91
2023/03/26 08:44:01;;;;;;;14.43;3.42;;;;;;;7.96;100.00;100012.47;4991435;28;20034;-90
2023/03/26 08:46:45;;;;;;;14.98;2.97;;;;;;;8.03;100.00;100009.72;4992818;28;20043;-91
2023/03/26 08:49:30;;;;;;;13.50;3.13;;;;;;;7.96;100.00;100004.38;4991117;28;20050;-91
2023/03/26 08:52:33;;;;;;;12.60;3.92;;;;;;;8.01;100.00;100001.81;4991029;28;20598;-91
2023/03/26 08:55:37;;;;;;;15.00;3.37;;;;;;;8.02;100.00;99997.28;4991220;28;20499;-91
2023/03/26 08:58:07;;;;;;;14.43;3.05;;;;;;;8.07;100.00;100000.13;4986071;28;20034;-90
2023/03/26 09:00:48;;;;;;;16.67;3.63;;;;;;;8.15;100.00;99999.03;4993227;28;20129;-91
2023/03/26 09:03:46;;;;;;;15.80;3.15;;;;;;;8.17;100.00;99996.94;4995557;28;20057;-92
2023/03/26 09:06:47;;;;;;;13.52;3.30;;;;;;;8.23;100.00;99993.34;4993544;28;20038;-91
2023/03/26 09:09:50;;;;;;;14.17;3.53;;;;;;;8.33;100.00;99996.38;4977317;28;20073;-90
2023/03/26 09:12:55;;;;;;;20.65;4.25;;;;;;;8.35;100.00;99999.69;4993581;28;20037;-90
2023/03/26 09:16:07;;;;;;;16.83;4.57;;;;;;;8.30;100.00;99996.84;4993991;28;20034;-91
2023/03/26 09:19:06;;;;;;;17.52;4.72;;;;;;;8.30;100.00;100001.38;4994976;28;20056;-91
2023/03/26 09:21:49;;;;;;;17.38;3.67;;;;;;;8.19;100.00;99987.56;4993827;28;20589;-91
2023/03/26 09:24:45;;;;;;;12.10;3.43;;;;;;;8.28;100.00;99992.69;4996775;28;20034;-91
2023/03/26 09:27:22;;;;;;;9.88;2.85;;;;;;;8.19;100.00;99989.44;4997299;28;20502;-91
2023/03/26 09:30:21;;;;;;;13.10;2.97;;;;;;;8.19;100.00;99998.38;4996960;28;20466;-91
2023/03/26 09:33:17;;;;;;;14.13;2.88;;;;;;;8.25;100.00;99993.94;4996854;28;20029;-91
2023/03/26 09:35:51;;;;;;;12.70;2.90;;;;;;;8.25;100.00;99993.94;4996603;28;20381;-91
2023/03/26 09:38:42;;;;;;;7.33;2.60;;;;;;;8.26;100.00;99999.13;5013812;28;20034;-91
2023/03/26 09:41:17;;;;;;;10.10;2.58;;;;;;;8.21;100.00;99990.88;4996583;28;20032;-91
2023/03/26 09:44:17;;;;;;;18.30;2.90;;;;;;;8.20;100.00;99996.50;5014069;28;20077;-91
2023/03/26 09:47:29;;;;;;;13.57;2.42;;;;;;;8.20;100.00;99993.81;4996532;28;20022;-91
2023/03/26 09:50:13;;;;;;;9.27;2.25;;;;;;;8.19;100.00;99995.69;4995302;28;20080;-91
2023/03/26 09:52:44;;;;;;;4.37;1.47;;;;;;;8.24;100.00;99995.00;5013887;28;20038;-91
2023/03/26 09:55:38;;;;;;;13.13;2.35;;;;;;;8.49;100.00;99995.03;4996162;28;20061;-91
2023/03/26 09:58:42;;;;;;;5.85;1.50;;;;;;;8.57;100.00;99997.44;4996592;28;20212;-91
2023/03/26 10:01:32;;;;;;;4.40;1.60;;;;;;;8.51;100.00;99990.22;4996510;28;20026;-91
2023/03/26 10:04:32;;;;;;;5.43;1.50;;;;;;;8.42;100.00;100000.44;5010172;28;20422;-91
2023/03/26 10:08:03;;;;;;;5.27;1.27;;;;;;;8.45;100.00;99999.22;4968104;28;20034;-91
2023/03/26 10:10:53;;;;;;;8.20;1.48;;;;;;;8.59;100.00;99998.06;4956186;28;20057;-91
2023/03/26 10:13:25;;;;;;;3.63;1.30;;;;;;;8.72;100.00;99996.25;4956351;28;20038;-91
2023/03/26 10:16:15;;;;;;;5.75;1.63;;;;;;;8.73;100.00;100009.56;5001301;28;20132;-91
2023/03/26 10:18:52;;;;;;;8.65;1.40;;;;;;;8.77;100.00;100002.66;4996295;28;20057;-90
2023/03/26 10:21:54;;;;;;;4.90;1.10;;;;;;;8.65;100.00;100006.31;4996166;28;20029;-90
2023/03/26 10:24:49;;;;;;;7.53;1.27;;;;;;;8.63;100.00;100006.53;4996258;28;20079;-91
2023/03/26 10:27:31;;;;;;;5.75;1.60;;;;;;;8.56;100.00;100009.31;4996001;28;20076;-91
2023/03/26 10:30:08;;;;;;;5.38;1.30;;;;;;;8.55;100.00;100004.94;4996112;28;20064;-91
2023/03/26 10:32:56;;;;;;;4.13;1.10;;;;;;;8.55;100.00;100013.06;5014000;28;20061;-91
2023/03/26 10:35:40;;;;;;;4.57;1.00;;;;;;;8.63;100.00;100011.94;4996366;28;20045;-91
2023/03/26 10:38:41;;;;;;;4.32;1.00;;;;;;;8.66;100.00;100008.78;5000451;28;20109;-91
2023/03/26 10:41:29;;;;;;;4.65;1.05;;;;;;;8.69;100.00;100019.16;5000492;28;20393;-91
2023/03/26 10:44:31;;;;;;;5.50;0.90;;;;;;;8.69;100.00;100019.16;4999763;28;20026;-91
2023/03/26 10:47:18;;;;;;;4.82;1.25;;;;;;;8.75;100.00;100025.56;4999918;28;20398;-91
2023/03/26 10:50:12;;;;;;;5.67;1.00;;;;;;;8.76;100.00;100024.50;4998764;28;20052;-91
2023/03/26 10:53:17;;;;;;;4.90;1.15;;;;;;;8.80;100.00;100019.47;4988449;28;20034;-91
2023/03/26 10:55:52;;;;;;;4.85;0.85;;;;;;;8.77;100.00;100018.88;4999578;28;20470;-91
2023/03/26 10:58:30;;;;;;;6.38;1.10;;;;;;;8.84;100.00;100026.09;5017571;28;20052;-91
2023/03/26 11:01:14;;;;;;;3.20;0.70;;;;;;;8.82;100.00;100010.09;4999821;28;20033;-91
2023/03/26 11:03:43;;;;;;;4.50;0.77;;;;;;;8.75;100.00;100025.56;4999068;28;20069;-91
2023/03/26 11:06:34;;;;;;;5.15;0.90;;;;;;;8.78;100.00;100028.66;4999344;28;20030;-91
2023/03/26 11:09:36;;;;;;;4.30;1.17;;;;;;;8.84;100.00;100026.91;5016687;28;20132;-91
2023/03/26 11:12:09;;;;;;;1.67;0.60;;;;;;;8.82;100.00;100020.09;4999737;28;20022;-91
2023/03/26 11:14:49;;;;;;;1.40;0.50;;;;;;;8.88;100.00;100040.84;4999513;28;20060;-90
2023/03/26 11:17:19;;;;;;;1.60;0.30;;;;;;;8.89;100.00;100026.25;4999491;28;20034;-91
2023/03/26 11:20:19;;;;;;;3.38;0.40;;;;;;;8.99;100.00;100033.84;4999063;28;20036;-90
2023/03/26 11:23:06;;;;;;;3.63;0.50;;;;;;;9.10;100.00;100036.63;5016428;28;20042;-90
2023/03/26 11:25:57;;;;;;;1.92;0.50;;;;;;;9.20;100.00;100040.69;5016813;28;20446;-90
2023/03/26 11:28:29;;;;;;;4.38;0.70;;;;;;;9.19;100.00;100033.63;4999243;28;20033;-91
2023/03/26 11:31:12;;;;;;;2.10;0.70;;;;;;;9.30;100.00;100039.09;4998657;28;20096;-91
2023/03/26 11:33:43;;;;;;;4.55;0.75;;;;;;;9.42;100.00;100043.75;4998385;28;20390;-91
2023/03/26 11:36:20;;;;;;;2.42;0.50;;;;;;;9.45;100.00;100035.19;4994664;28;20026;-90
2023/03/26 11:38:53;;;;;;;2.25;0.50;;;;;;;9.52;100.00;100035.09;4997523;28;20050;-90
2023/03/26 11:41:25;;;;;;;2.55;0.70;;;;;;;9.65;100.00;100032.19;4998596;28;20044;-91
2023/03/26 11:44:01;;;;;;;2.13;0.80;;;;;;;9.74;100.00;100044.38;4993247;28;20559;-89
2023/03/26 11:46:27;;;;;;;3.60;0.70;;;;;;;9.87;100.00;100053.38;4998407;28;20033;-90
2023/03/26 11:49:15;;;;;;;2.50;0.80;;;;;;;9.97;100.00;100046.34;4997721;28;20057;-90
2023/03/26 11:51:44;;;;;;;2.03;0.75;;;;;;;10.16;100.00;100049.00;4998493;28;20070;-89
2023/03/26 11:54:11;;;;;;;3.00;0.70;;;;;;;10.31;100.00;100049.38;4998404;28;20132;-90
2023/03/26 11:56:52;;;;;;;3.33;0.80;;;;;;;10.41;100.00;100056.13;5015069;28;20030;-89
2023/03/26 11:59:23;;;;;;;3.22;1.02;;;;;;;10.52;100.00;100050.72;5016228;28;20119;-90
2023/03/26 12:01:58;;;;;;;2.88;1.15;;;;;;;10.53;100.00;100049.66;4998654;28;20120;-89
2023/03/26 12:04:39;;;;;;;3.03;1.10;;;;;;;10.65;100.00;100060.50;4998680;28;20030;-90
2023/03/26 12:07:30;;;;;;;2.63;1.00;;;;;;;10.65;100.00;100068.66;5016148;28;20025;-90
2023/03/26 12:09:58;;;;;;;3.43;1.07;;;;;;;10.55;100.00;100059.47;5018132;28;20041;-89
2023/03/26 12:12:30;;;;;;;3.05;1.00;;;;;;;10.41;100.00;100059.69;4998037;28;20061;-90
2023/03/26 12:15:04;;;;;;;3.20;1.02;;;;;;;10.37;100.00;100063.09;5016029;28;20038;-90
2023/03/26 12:17:43;;;;;;;4.07;1.13;;;;;;;10.33;100.00;100068.09;4983397;28;20030;-90
2023/03/26 12:20:38;;;;;;;5.57;1.10;;;;;;;10.23;100.00;100057.00;4998747;28;20462;-90
2023/03/26 12:23:05;;;;;;;2.73;1.13;;;;;;;10.09;100.00;100057.22;4998737;28;20021;-91
2023/03/26 12:25:37;;;;;;;6.15;1.80;;;;;;;10.10;100.00;100056.16;4978486;28;20033;-90
2023/03/26 12:28:12;;;;;;;4.32;1.40;;;;;;;10.12;100.00;100070.28;5015901;28;20034;-90
2023/03/26 12:30:53;;;;;;;3.03;1.05;;;;;;;10.02;100.00;100056.47;5015786;28;20101;-90
2023/03/26 12:33:27;;;;;;;3.58;1.30;;;;;;;10.11;100.00;100063.25;4999321;28;20505;-90
2023/03/26 12:36:01;;;;;;;2.27;1.30;;;;;;;10.17;100.00;100067.72;4999622;28;20649;-90
2023/03/26 12:38:39;;;;;;;4.43;1.50;;;;;;;10.28;100.00;100068.81;4998892;28;20544;-90
2023/03/26 12:41:13;;;;;;;4.28;1.50;;;;;;;10.39;100.00;100077.22;4997905;28;20029;-90
2023/03/26 12:43:44;;;;;;;5.57;1.70;;;;;;;10.71;100.00;100077.75;5000396;28;20049;-90
2023/03/26 12:46:32;;;;;;;3.38;1.58;;;;;;;11.16;100.00;100088.00;4998519;28;20111;-90
2023/03/26 12:49:10;;;;;;;2.83;1.70;;;;;;;11.38;100.00;100080.06;4999223;28;20052;-90
2023/03/26 12:51:36;;;;;;;3.28;1.30;;;;;;;11.48;100.00;100081.34;5017606;28;20184;-89
2023/03/26 12:54:28;;;;;;;2.88;1.55;;;;;;;11.59;100.00;100073.16;5016207;28;20036;-90
2023/03/26 12:57:03;;;;;;;2.80;1.17;;;;;;;11.81;100.00;100087.97;5017310;28;20026;-90
2023/03/26 12:59:51;;;;;;;2.55;1.50;;;;;;;11.96;100.00;100077.44;4997798;28;20474;-90
2023/03/26 13:02:43;;;;;;;3.50;1.43;;;;;;;12.03;100.00;100086.25;5015279;28;20076;-90
2023/03/26 13:05:20;;;;;;;4.60;1.50;;;;;;;11.98;99.87;100093.50;5012637;28;20087;-90
2023/03/26 13:08:13;;;;;;;4.28;1.40;;;;;;;12.18;100.00;100090.31;5016385;28;20057;-90
2023/03/26 13:10:55;;;;;;;4.38;1.35;;;;;;;12.42;98.06;100097.28;4997902;28;20117;-91
2023/03/26 13:13:50;;;;;;;3.22;1.10;;;;;;;12.57;97.46;100093.16;4997606;28;20041;-91
2023/03/26 13:16:24;;;;;;;1.73;1.00;;;;;;;12.76;96.02;100082.84;4997986;28;20033;-89
2023/03/26 13:19:14;;;;;;;2.65;1.02;;;;;;;12.90;93.51;100092.34;4998454;28;20121;-88
2023/03/26 13:21:52;;;;;;;3.05;1.10;;;;;;;12.78;93.94;100095.16;4997834;28;20030;-89
2023/03/26 13:24:39;;;;;;;2.22;1.13;;;;;;;12.56;92.87;100103.22;4997186;28;20038;-89
2023/03/26 13:27:07;;;;;;;2.55;1.70;;;;;;;12.28;95.89;100107.66;4998385;28;20427;-94
2023/03/26 13:30:21;;;;;;;4.23;1.10;;;;;;;12.03;98.35;100099.00;4997630;28;20038;-91
2023/03/26 13:33:14;;;;;;;2.78;1.10;;;;;;;11.83;98.98;100102.97;4996996;28;20120;-90
2023/03/26 13:36:20;;;;;;;3.30;1.30;;;;;;;11.67;100.00;100107.25;4997709;28;20116;-89
2023/03/26 13:39:14;;;;;;;2.78;1.40;;;;;;;11.64;100.00;100109.66;4989339;28;20088;-89
2023/03/26 13:42:02;;;;;;;3.20;1.45;;;;;;;11.62;99.22;100107.19;5014482;28;20025;-89
2023/03/26 13:45:03;;;;;;;3.47;1.40;;;;;;;11.34;100.00;100106.03;4996900;28;20084;-90
2023/03/26 13:47:33;;;;;;;3.92;1.40;;;;;;;11.17;100.00;100114.06;4996415;28;20041;-88
2023/03/26 13:50:02;;;;;;;2.65;0.90;;;;;;;10.83;99.14;100121.97;5014206;28;20052;-88
2023/03/26 13:52:43;;;;;;;2.63;0.90;;;;;;;10.45;100.00;100122.41;4996509;28;20049;-88
2023/03/26 13:55:21;;;;;;;2.08;0.90;;;;;;;10.08;100.00;100136.88;4996965;28;20034;-88
2023/03/26 13:58:03;;;;;;;2.33;1.25;;;;;;;9.82;100.00;100124.50;4996280;28;20038;-88
2023/03/26 14:01:06;;;;;;;3.72;1.15;;;;;;;9.56;100.00;100140.03;4996363;28;20030;-88
2023/03/26 14:03:38;;;;;;;2.53;1.58;;;;;;;9.51;100.00;100142.59;4996335;28;20085;-88
2023/03/26 14:06:29;;;;;;;4.95;2.65;;;;;;;9.48;100.00;100146.56;4996183;28;20038;-87
2023/03/26 14:09:03;;;;;;;3.15;2.03;;;;;;;9.52;100.00;100143.41;5002648;28;20069;-88
2023/03/26 14:11:55;;;;;;;3.88;2.40;;;;;;;9.58;100.00;100156.03;4995598;28;20125;-90
2023/03/26 14:15:01;;;;;;;4.63;2.83;;;;;;;9.70;100.00;100166.94;5013716;28;20037;-88
2023/03/26 14:17:58;;;;;;;5.50;2.83;;;;;;;9.55;100.00;100160.06;4996159;28;20026;-87
2023/03/26 14:20:55;;;;;;;4.95;2.55;;;;;;;9.44;100.00;100168.91;4991631;28;20045;-89
2023/03/26 14:23:41;;;;;;;7.05;2.92;;;;;;;9.26;100.00;100175.97;5013517;28;20037;-88
2023/03/26 14:26:46;;;;;;;5.75;3.30;;;;;;;8.98;100.00;100181.84;4996113;28;20075;-87
2023/03/26 14:29:32;;;;;;;10.45;3.80;;;;;;;8.76;100.00;100178.69;5012307;28;20030;-88
2023/03/26 14:32:09;;;;;;;14.85;4.15;;;;;;;8.69;100.00;100186.84;5013554;28;20084;-87
2023/03/26 14:34:44;;;;;;;16.13;4.55;;;;;;;8.62;100.00;100187.94;4996431;28;20157;-89
2023/03/26 14:37:42;;;;;;;;;;;;;;;;;;;;;
2023/03/26 14:40:42;;;;;;;14.00;3.65;;;;;;;8.53;100.00;100204.44;5014245;28;20034;-89
2023/03/26 14:43:15;;;;;;;12.50;4.22;;;;;;;8.49;100.00;100200.50;4995872;28;20553;-88
2023/03/26 14:45:59;;;;;;;15.63;4.30;;;;;;;8.43;100.00;100201.34;4996014;28;20098;-89
2023/03/26 14:48:59;;;;;;;13.35;3.53;;;;;;;8.41;100.00;100220.50;4995470;28;20065;-89
2023/03/26 14:52:02;;;;;;;8.85;3.20;;;;;;;8.50;100.00;100226.47;4995839;28;20026;-88
2023/03/26 14:54:35;;;;;;;8.50;2.35;;;;;;;8.50;100.00;100228.34;4995684;28;20034;-89
2023/03/26 14:57:33;;;;;;;12.57;2.47;;;;;;;8.52;100.00;100226.25;4995378;28;20144;-89
2023/03/26 15:00:05;;;;;;;13.10;2.60;;;;;;;8.59;100.00;100245.97;4975339;28;20034;-89
2023/03/26 15:02:52;;;;;;;12.70;2.60;;;;;;;8.69;100.00;100243.63;4995328;28;20030;-89
2023/03/26 15:05:37;;;;;;;12.68;2.42;;;;;;;8.72;100.00;100237.78;4995816;28;20042;-91
2023/03/26 15:08:47;;;;;;;11.13;2.47;;;;;;;8.95;100.00;100233.69;4996208;28;20037;-91
2023/03/26 15:11:49;;;;;;;;;;;;;;;;;;;;;
2023/03/26 15:14:57;;;;;;;13.73;2.22;;;;;;;9.46;100.00;100258.84;5013655;28;20034;-90
2023/03/26 15:17:41;;;;;;;14.52;2.45;;;;;;;9.42;100.00;100257.66;5012175;28;20038;-90